sensor_id;sensor_type;location;lat;lon;timestamp;temperature;humidity
22925;DHT22;11628;51.072;3.712;2022-12-10T00:01:33;0.60;99.90
22925;DHT22;11628;51.072;3.712;2022-12-10T00:03:59;0.60;99.90
22925;DHT22;11628;51.072;3.712;2022-12-10T00:06:29;0.60;99.90
22925;DHT22;11628;51.072;3.712;2022-12-10T00:08:55;0.60;99.90
22925;DHT22;11628;51.072;3.712;2022-12-10T00:11:22;0.70;99.90
22925;DHT22;11628;51.072;3.712;2022-12-10T00:13:48;0.60;99.90
22925;DHT22;11628;51.072;3.712;2022-12-10T00:16:16;0.60;99.90
22925;DHT22;11628;51.072;3.712;2022-12-10T00:18:42;0.50;99.90
22925;DHT22;11628;51.072;3.712;2022-12-10T00:21:11;0.50;99.90
22925;DHT22;11628;51.072;3.712;2022-12-10T00:23:38;0.60;99.90
22925;DHT22;11628;51.072;3.712;2022-12-10T00:26:15;0.60;99.90
22925;DHT22;11628;51.072;3.712;2022-12-10T00:28:42;0.60;99.90
22925;DHT22;11628;51.072;3.712;2022-12-10T00:31:13;0.60;99.90
22925;DHT22;11628;51.072;3.712;2022-12-10T00:33:39;0.60;99.90
22925;DHT22;11628;51.072;3.712;2022-12-10T00:36:08;0.60;99.90
22925;DHT22;11628;51.072;3.712;2022-12-10T00:38:35;0.60;99.90
22925;DHT22;11628;51.072;3.712;2022-12-10T00:41:00;0.60;99.90
22925;DHT22;11628;51.072;3.712;2022-12-10T00:43:27;0.60;99.90
22925;DHT22;11628;51.072;3.712;2022-12-10T00:45:53;0.70;99.90
22925;DHT22;11628;51.072;3.712;2022-12-10T00:48:19;0.70;99.90
22925;DHT22;11628;51.072;3.712;2022-12-10T00:51:04;0.70;99.90
22925;DHT22;11628;51.072;3.712;2022-12-10T00:53:31;0.60;99.90
22925;DHT22;11628;51.072;3.712;2022-12-10T00:55:58;0.50;99.90
22925;DHT22;11628;51.072;3.712;2022-12-10T00:58:27;0.50;99.90
22925;DHT22;11628;51.072;3.712;2022-12-10T01:00:53;0.50;99.90
22925;DHT22;11628;51.072;3.712;2022-12-10T01:03:19;0.50;99.90
22925;DHT22;11628;51.072;3.712;2022-12-10T01:05:45;0.40;99.90
22925;DHT22;11628;51.072;3.712;2022-12-10T01:08:11;0.50;99.90
22925;DHT22;11628;51.072;3.712;2022-12-10T01:10:36;0.40;99.90
22925;DHT22;11628;51.072;3.712;2022-12-10T01:13:03;0.50;99.90
22925;DHT22;11628;51.072;3.712;2022-12-10T01:15:29;0.50;99.90
22925;DHT22;11628;51.072;3.712;2022-12-10T01:17:55;0.50;99.90
22925;DHT22;11628;51.072;3.712;2022-12-10T01:20:20;0.50;99.90
22925;DHT22;11628;51.072;3.712;2022-12-10T01:22:46;0.50;99.90
22925;DHT22;11628;51.072;3.712;2022-12-10T01:25:12;0.40;99.90
22925;DHT22;11628;51.072;3.712;2022-12-10T01:27:37;0.40;99.90
22925;DHT22;11628;51.072;3.712;2022-12-10T01:30:03;0.40;99.90
22925;DHT22;11628;51.072;3.712;2022-12-10T01:32:29;0.40;99.90
22925;DHT22;11628;51.072;3.712;2022-12-10T01:34:55;0.40;99.90
22925;DHT22;11628;51.072;3.712;2022-12-10T01:37:20;0.40;99.90
22925;DHT22;11628;51.072;3.712;2022-12-10T01:39:46;0.50;99.90
22925;DHT22;11628;51.072;3.712;2022-12-10T01:42:15;0.50;99.90
22925;DHT22;11628;51.072;3.712;2022-12-10T01:47:06;0.80;99.90
22925;DHT22;11628;51.072;3.712;2022-12-10T01:49:38;0.70;99.90
22925;DHT22;11628;51.072;3.712;2022-12-10T01:52:07;0.50;99.90
22925;DHT22;11628;51.072;3.712;2022-12-10T01:54:43;0.50;99.90
22925;DHT22;11628;51.072;3.712;2022-12-10T01:57:20;0.40;99.90
22925;DHT22;11628;51.072;3.712;2022-12-10T01:59:49;0.40;99.90
22925;DHT22;11628;51.072;3.712;2022-12-10T02:02:55;0.40;99.90
22925;DHT22;11628;51.072;3.712;2022-12-10T02:05:39;0.40;99.90
22925;DHT22;11628;51.072;3.712;2022-12-10T02:08:19;0.40;99.90
22925;DHT22;11628;51.072;3.712;2022-12-10T02:11:22;0.40;99.90
22925;DHT22;11628;51.072;3.712;2022-12-10T02:14:04;0.50;99.90
22925;DHT22;11628;51.072;3.712;2022-12-10T02:16:38;0.50;99.90
22925;DHT22;11628;51.072;3.712;2022-12-10T02:19:26;0.50;99.90
22925;DHT22;11628;51.072;3.712;2022-12-10T02:21:59;0.40;99.90
22925;DHT22;11628;51.072;3.712;2022-12-10T02:24:29;0.40;99.90
22925;DHT22;11628;51.072;3.712;2022-12-10T02:29:31;0.70;99.90
22925;DHT22;11628;51.072;3.712;2022-12-10T02:32:07;0.80;99.90
22925;DHT22;11628;51.072;3.712;2022-12-10T02:34:38;0.80;99.90
22925;DHT22;11628;51.072;3.712;2022-12-10T02:37:38;0.60;99.90
22925;DHT22;11628;51.072;3.712;2022-12-10T02:40:09;0.50;99.90
22925;DHT22;11628;51.072;3.712;2022-12-10T02:42:39;0.60;99.90
22925;DHT22;11628;51.072;3.712;2022-12-10T02:45:08;0.60;99.90
22925;DHT22;11628;51.072;3.712;2022-12-10T02:47:35;0.50;99.90
22925;DHT22;11628;51.072;3.712;2022-12-10T02:50:02;0.60;99.90
22925;DHT22;11628;51.072;3.712;2022-12-10T02:52:28;0.50;99.90
22925;DHT22;11628;51.072;3.712;2022-12-10T02:54:54;0.60;99.90
22925;DHT22;11628;51.072;3.712;2022-12-10T03:00:16;0.50;99.90
22925;DHT22;11628;51.072;3.712;2022-12-10T03:05:56;0.50;99.90
22925;DHT22;11628;51.072;3.712;2022-12-10T03:08:33;0.50;99.90
22925;DHT22;11628;51.072;3.712;2022-12-10T03:11:16;0.50;99.90
22925;DHT22;11628;51.072;3.712;2022-12-10T03:13:59;0.60;99.90
22925;DHT22;11628;51.072;3.712;2022-12-10T03:16:29;0.60;99.90
22925;DHT22;11628;51.072;3.712;2022-12-10T03:19:00;0.60;99.90
22925;DHT22;11628;51.072;3.712;2022-12-10T03:21:27;0.70;99.90
22925;DHT22;11628;51.072;3.712;2022-12-10T03:23:55;0.70;99.90
22925;DHT22;11628;51.072;3.712;2022-12-10T03:26:22;0.80;99.90
22925;DHT22;11628;51.072;3.712;2022-12-10T03:28:51;0.80;99.90
22925;DHT22;11628;51.072;3.712;2022-12-10T03:31:19;0.90;99.90
22925;DHT22;11628;51.072;3.712;2022-12-10T03:33:46;0.90;99.90
22925;DHT22;11628;51.072;3.712;2022-12-10T03:36:13;0.90;99.90
22925;DHT22;11628;51.072;3.712;2022-12-10T03:38:40;0.90;99.90
22925;DHT22;11628;51.072;3.712;2022-12-10T03:41:06;0.90;99.90
22925;DHT22;11628;51.072;3.712;2022-12-10T03:43:32;1.00;99.90
22925;DHT22;11628;51.072;3.712;2022-12-10T03:45:58;0.90;99.90
22925;DHT22;11628;51.072;3.712;2022-12-10T03:48:23;0.90;99.90
22925;DHT22;11628;51.072;3.712;2022-12-10T03:50:52;1.10;99.90
22925;DHT22;11628;51.072;3.712;2022-12-10T03:53:18;0.90;99.90
22925;DHT22;11628;51.072;3.712;2022-12-10T03:55:44;0.90;99.90
22925;DHT22;11628;51.072;3.712;2022-12-10T03:58:09;0.90;99.90
22925;DHT22;11628;51.072;3.712;2022-12-10T04:00:35;1.10;99.90
22925;DHT22;11628;51.072;3.712;2022-12-10T04:03:01;1.00;99.90
22925;DHT22;11628;51.072;3.712;2022-12-10T04:05:29;1.00;99.90
22925;DHT22;11628;51.072;3.712;2022-12-10T04:07:55;1.00;99.90
22925;DHT22;11628;51.072;3.712;2022-12-10T04:10:21;1.00;99.90
22925;DHT22;11628;51.072;3.712;2022-12-10T04:12:46;1.00;99.90
22925;DHT22;11628;51.072;3.712;2022-12-10T04:15:32;1.00;99.90
22925;DHT22;11628;51.072;3.712;2022-12-10T04:18:16;1.00;99.90
22925;DHT22;11628;51.072;3.712;2022-12-10T04:20:42;1.10;99.90
22925;DHT22;11628;51.072;3.712;2022-12-10T04:23:27;1.00;99.90
22925;DHT22;11628;51.072;3.712;2022-12-10T04:26:11;1.10;99.90
22925;DHT22;11628;51.072;3.712;2022-12-10T04:28:55;1.20;99.90
22925;DHT22;11628;51.072;3.712;2022-12-10T04:31:21;1.10;99.90
22925;DHT22;11628;51.072;3.712;2022-12-10T04:33:47;1.00;99.90
22925;DHT22;11628;51.072;3.712;2022-12-10T04:36:12;1.00;99.90
22925;DHT22;11628;51.072;3.712;2022-12-10T04:38:38;1.00;99.90
22925;DHT22;11628;51.072;3.712;2022-12-10T04:41:04;1.00;99.90
22925;DHT22;11628;51.072;3.712;2022-12-10T04:43:43;1.00;99.90
22925;DHT22;11628;51.072;3.712;2022-12-10T04:46:09;1.00;99.90
22925;DHT22;11628;51.072;3.712;2022-12-10T04:48:35;1.10;99.90
22925;DHT22;11628;51.072;3.712;2022-12-10T04:51:01;0.90;99.90
22925;DHT22;11628;51.072;3.712;2022-12-10T04:53:27;0.90;99.90
22925;DHT22;11628;51.072;3.712;2022-12-10T04:55:55;0.90;99.90
22925;DHT22;11628;51.072;3.712;2022-12-10T04:58:21;0.90;99.90
22925;DHT22;11628;51.072;3.712;2022-12-10T05:00:50;0.90;99.90
22925;DHT22;11628;51.072;3.712;2022-12-10T05:03:15;0.90;99.90
22925;DHT22;11628;51.072;3.712;2022-12-10T05:05:41;0.90;99.90
22925;DHT22;11628;51.072;3.712;2022-12-10T05:08:07;0.80;99.90
22925;DHT22;11628;51.072;3.712;2022-12-10T05:10:34;0.90;99.90
22925;DHT22;11628;51.072;3.712;2022-12-10T05:13:00;0.90;99.90
22925;DHT22;11628;51.072;3.712;2022-12-10T05:15:26;0.90;99.90
22925;DHT22;11628;51.072;3.712;2022-12-10T05:17:51;0.90;99.90
22925;DHT22;11628;51.072;3.712;2022-12-10T05:20:17;0.90;99.90
22925;DHT22;11628;51.072;3.712;2022-12-10T05:22:43;0.90;99.90
22925;DHT22;11628;51.072;3.712;2022-12-10T05:25:27;1.00;99.90
22925;DHT22;11628;51.072;3.712;2022-12-10T05:27:53;0.90;99.90
22925;DHT22;11628;51.072;3.712;2022-12-10T05:30:19;0.90;99.90
22925;DHT22;11628;51.072;3.712;2022-12-10T05:32:44;0.90;99.90
22925;DHT22;11628;51.072;3.712;2022-12-10T05:35:10;0.90;99.90
22925;DHT22;11628;51.072;3.712;2022-12-10T05:37:36;0.90;99.90
22925;DHT22;11628;51.072;3.712;2022-12-10T05:40:02;1.00;99.90
22925;DHT22;11628;51.072;3.712;2022-12-10T05:42:28;1.00;99.90
22925;DHT22;11628;51.072;3.712;2022-12-10T05:44:53;1.00;99.90
22925;DHT22;11628;51.072;3.712;2022-12-10T05:47:19;1.00;99.90
22925;DHT22;11628;51.072;3.712;2022-12-10T05:49:45;1.00;99.90
22925;DHT22;11628;51.072;3.712;2022-12-10T05:52:12;1.00;99.90
22925;DHT22;11628;51.072;3.712;2022-12-10T05:54:38;1.10;99.90
22925;DHT22;11628;51.072;3.712;2022-12-10T05:57:03;1.10;99.90
22925;DHT22;11628;51.072;3.712;2022-12-10T05:59:29;1.00;99.90
22925;DHT22;11628;51.072;3.712;2022-12-10T06:01:55;1.00;99.90
22925;DHT22;11628;51.072;3.712;2022-12-10T06:04:20;1.00;99.90
22925;DHT22;11628;51.072;3.712;2022-12-10T06:06:46;1.00;99.90
22925;DHT22;11628;51.072;3.712;2022-12-10T06:09:13;1.10;99.90
22925;DHT22;11628;51.072;3.712;2022-12-10T06:11:39;1.00;99.90
22925;DHT22;11628;51.072;3.712;2022-12-10T06:14:05;1.00;99.90
22925;DHT22;11628;51.072;3.712;2022-12-10T06:16:30;1.00;99.90
22925;DHT22;11628;51.072;3.712;2022-12-10T06:18:56;1.00;99.90
22925;DHT22;11628;51.072;3.712;2022-12-10T06:21:22;0.90;99.90
22925;DHT22;11628;51.072;3.712;2022-12-10T06:23:49;0.90;99.90
22925;DHT22;11628;51.072;3.712;2022-12-10T06:26:23;1.00;99.90
22925;DHT22;11628;51.072;3.712;2022-12-10T06:28:49;1.00;99.90
22925;DHT22;11628;51.072;3.712;2022-12-10T06:31:16;1.10;99.90
22925;DHT22;11628;51.072;3.712;2022-12-10T06:33:42;1.10;99.90
22925;DHT22;11628;51.072;3.712;2022-12-10T06:36:11;1.00;99.90
22925;DHT22;11628;51.072;3.712;2022-12-10T06:38:37;1.10;99.90
22925;DHT22;11628;51.072;3.712;2022-12-10T06:41:10;1.10;99.90
22925;DHT22;11628;51.072;3.712;2022-12-10T06:43:36;1.10;99.90
22925;DHT22;11628;51.072;3.712;2022-12-10T06:46:14;1.00;99.90
22925;DHT22;11628;51.072;3.712;2022-12-10T06:48:41;1.00;99.90
22925;DHT22;11628;51.072;3.712;2022-12-10T06:51:07;0.90;99.90
22925;DHT22;11628;51.072;3.712;2022-12-10T06:53:35;1.00;99.90
22925;DHT22;11628;51.072;3.712;2022-12-10T06:56:02;1.00;99.90
22925;DHT22;11628;51.072;3.712;2022-12-10T06:58:29;1.00;99.90
22925;DHT22;11628;51.072;3.712;2022-12-10T07:01:10;1.00;99.90
22925;DHT22;11628;51.072;3.712;2022-12-10T07:03:37;1.00;99.90
22925;DHT22;11628;51.072;3.712;2022-12-10T07:06:03;1.00;99.90
22925;DHT22;11628;51.072;3.712;2022-12-10T07:08:30;1.00;99.90
22925;DHT22;11628;51.072;3.712;2022-12-10T07:10:56;0.90;99.90
22925;DHT22;11628;51.072;3.712;2022-12-10T07:13:22;0.90;99.90
22925;DHT22;11628;51.072;3.712;2022-12-10T07:15:48;1.00;99.90
22925;DHT22;11628;51.072;3.712;2022-12-10T07:18:14;1.00;99.90
22925;DHT22;11628;51.072;3.712;2022-12-10T07:20:39;1.00;99.90
22925;DHT22;11628;51.072;3.712;2022-12-10T07:23:05;1.10;99.90
22925;DHT22;11628;51.072;3.712;2022-12-10T07:25:32;1.10;99.90
22925;DHT22;11628;51.072;3.712;2022-12-10T07:27:58;1.00;99.90
22925;DHT22;11628;51.072;3.712;2022-12-10T07:30:24;0.90;99.90
22925;DHT22;11628;51.072;3.712;2022-12-10T07:32:50;1.00;99.90
22925;DHT22;11628;51.072;3.712;2022-12-10T07:35:15;1.00;99.90
22925;DHT22;11628;51.072;3.712;2022-12-10T07:37:41;1.10;99.90
22925;DHT22;11628;51.072;3.712;2022-12-10T07:40:07;1.10;99.90
22925;DHT22;11628;51.072;3.712;2022-12-10T07:42:33;1.10;99.90
22925;DHT22;11628;51.072;3.712;2022-12-10T07:44:59;1.10;99.90
22925;DHT22;11628;51.072;3.712;2022-12-10T07:47:24;1.20;99.90
22925;DHT22;11628;51.072;3.712;2022-12-10T07:49:50;1.30;99.90
22925;DHT22;11628;51.072;3.712;2022-12-10T07:52:16;1.20;99.90
22925;DHT22;11628;51.072;3.712;2022-12-10T07:54:42;1.20;99.90
22925;DHT22;11628;51.072;3.712;2022-12-10T07:57:08;1.20;99.90
22925;DHT22;11628;51.072;3.712;2022-12-10T07:59:33;1.20;99.90
22925;DHT22;11628;51.072;3.712;2022-12-10T08:01:59;1.30;99.90
22925;DHT22;11628;51.072;3.712;2022-12-10T08:04:28;1.30;99.90
22925;DHT22;11628;51.072;3.712;2022-12-10T08:06:55;1.40;99.90
22925;DHT22;11628;51.072;3.712;2022-12-10T08:09:21;1.40;99.90
22925;DHT22;11628;51.072;3.712;2022-12-10T08:11:46;1.40;99.90
22925;DHT22;11628;51.072;3.712;2022-12-10T08:14:12;1.40;99.90
22925;DHT22;11628;51.072;3.712;2022-12-10T08:16:38;1.50;99.90
22925;DHT22;11628;51.072;3.712;2022-12-10T08:19:04;1.50;99.90
22925;DHT22;11628;51.072;3.712;2022-12-10T08:21:31;1.40;99.90
22925;DHT22;11628;51.072;3.712;2022-12-10T08:23:57;1.40;99.90
22925;DHT22;11628;51.072;3.712;2022-12-10T08:26:26;1.40;99.90
22925;DHT22;11628;51.072;3.712;2022-12-10T08:28:53;1.40;99.90
22925;DHT22;11628;51.072;3.712;2022-12-10T08:31:20;1.40;99.90
22925;DHT22;11628;51.072;3.712;2022-12-10T08:33:46;1.40;99.90
22925;DHT22;11628;51.072;3.712;2022-12-10T08:36:14;1.30;99.90
22925;DHT22;11628;51.072;3.712;2022-12-10T08:38:40;1.30;99.90
22925;DHT22;11628;51.072;3.712;2022-12-10T08:41:13;1.40;99.90
22925;DHT22;11628;51.072;3.712;2022-12-10T08:43:39;1.30;99.90
22925;DHT22;11628;51.072;3.712;2022-12-10T08:46:06;1.30;99.90
22925;DHT22;11628;51.072;3.712;2022-12-10T08:48:32;1.40;99.90
22925;DHT22;11628;51.072;3.712;2022-12-10T08:50:58;1.40;99.90
22925;DHT22;11628;51.072;3.712;2022-12-10T08:53:24;1.50;99.90
22925;DHT22;11628;51.072;3.712;2022-12-10T08:55:51;1.60;99.90
22925;DHT22;11628;51.072;3.712;2022-12-10T08:58:17;1.60;99.90
22925;DHT22;11628;51.072;3.712;2022-12-10T09:00:43;1.60;99.90
22925;DHT22;11628;51.072;3.712;2022-12-10T09:03:09;1.60;99.90
22925;DHT22;11628;51.072;3.712;2022-12-10T09:05:35;1.70;99.90
22925;DHT22;11628;51.072;3.712;2022-12-10T09:08:01;1.70;99.90
22925;DHT22;11628;51.072;3.712;2022-12-10T09:10:27;1.80;99.90
22925;DHT22;11628;51.072;3.712;2022-12-10T09:12:53;1.90;99.90
22925;DHT22;11628;51.072;3.712;2022-12-10T09:15:19;1.90;99.90
22925;DHT22;11628;51.072;3.712;2022-12-10T09:17:45;2.00;99.90
22925;DHT22;11628;51.072;3.712;2022-12-10T09:20:10;2.10;99.90
22925;DHT22;11628;51.072;3.712;2022-12-10T09:22:36;2.20;99.90
22925;DHT22;11628;51.072;3.712;2022-12-10T09:25:06;2.20;99.90
22925;DHT22;11628;51.072;3.712;2022-12-10T09:27:34;2.20;99.90
22925;DHT22;11628;51.072;3.712;2022-12-10T09:29:59;2.30;99.90
22925;DHT22;11628;51.072;3.712;2022-12-10T09:32:25;2.30;99.90
22925;DHT22;11628;51.072;3.712;2022-12-10T09:34:51;2.30;99.90
22925;DHT22;11628;51.072;3.712;2022-12-10T09:37:17;2.30;99.90
22925;DHT22;11628;51.072;3.712;2022-12-10T09:39:43;2.30;99.90
22925;DHT22;11628;51.072;3.712;2022-12-10T09:45:18;2.30;99.90
22925;DHT22;11628;51.072;3.712;2022-12-10T09:50:43;2.30;99.90
22925;DHT22;11628;51.072;3.712;2022-12-10T09:53:11;2.30;99.90
22925;DHT22;11628;51.072;3.712;2022-12-10T09:55:42;2.40;99.90
22925;DHT22;11628;51.072;3.712;2022-12-10T09:58:16;2.50;99.90
22925;DHT22;11628;51.072;3.712;2022-12-10T10:00:45;2.40;99.90
22925;DHT22;11628;51.072;3.712;2022-12-10T10:03:13;2.30;99.90
22925;DHT22;11628;51.072;3.712;2022-12-10T10:05:51;2.20;99.90
22925;DHT22;11628;51.072;3.712;2022-12-10T10:10:46;2.40;99.90
22925;DHT22;11628;51.072;3.712;2022-12-10T10:15:50;2.50;99.90
22925;DHT22;11628;51.072;3.712;2022-12-10T10:18:33;2.60;99.90
22925;DHT22;11628;51.072;3.712;2022-12-10T10:21:01;2.60;99.90
22925;DHT22;11628;51.072;3.712;2022-12-10T10:23:27;2.60;99.90
22925;DHT22;11628;51.072;3.712;2022-12-10T10:25:53;2.60;99.90
22925;DHT22;11628;51.072;3.712;2022-12-10T10:28:21;2.70;99.90
22925;DHT22;11628;51.072;3.712;2022-12-10T10:30:48;2.80;99.90
22925;DHT22;11628;51.072;3.712;2022-12-10T10:33:16;2.90;99.90
22925;DHT22;11628;51.072;3.712;2022-12-10T10:38:21;3.30;99.90
22925;DHT22;11628;51.072;3.712;2022-12-10T10:40:57;3.20;99.90
22925;DHT22;11628;51.072;3.712;2022-12-10T10:43:31;3.30;99.90
22925;DHT22;11628;51.072;3.712;2022-12-10T10:46:17;3.40;99.90
22925;DHT22;11628;51.072;3.712;2022-12-10T10:48:46;3.20;99.90
22925;DHT22;11628;51.072;3.712;2022-12-10T10:53:43;3.40;99.90
22925;DHT22;11628;51.072;3.712;2022-12-10T10:56:18;3.30;99.90
22925;DHT22;11628;51.072;3.712;2022-12-10T10:59:02;3.40;99.90
22925;DHT22;11628;51.072;3.712;2022-12-10T11:01:55;3.30;99.90
22925;DHT22;11628;51.072;3.712;2022-12-10T11:04:38;3.40;99.90
22925;DHT22;11628;51.072;3.712;2022-12-10T11:09:48;3.30;99.90
22925;DHT22;11628;51.072;3.712;2022-12-10T11:12:35;3.60;99.90
22925;DHT22;11628;51.072;3.712;2022-12-10T11:15:28;3.60;99.90
22925;DHT22;11628;51.072;3.712;2022-12-10T11:17:55;4.00;99.90
22925;DHT22;11628;51.072;3.712;2022-12-10T11:22:57;4.60;99.90
22925;DHT22;11628;51.072;3.712;2022-12-10T11:31:22;3.70;99.90
22925;DHT22;11628;51.072;3.712;2022-12-10T11:34:13;3.60;99.90
22925;DHT22;11628;51.072;3.712;2022-12-10T11:45:07;3.80;99.90
22925;DHT22;11628;51.072;3.712;2022-12-10T11:47:56;4.00;99.90
22925;DHT22;11628;51.072;3.712;2022-12-10T11:50:43;4.10;99.90
22925;DHT22;11628;51.072;3.712;2022-12-10T11:53:19;4.10;99.90
22925;DHT22;11628;51.072;3.712;2022-12-10T11:59:14;3.80;99.90
22925;DHT22;11628;51.072;3.712;2022-12-10T12:13:05;3.80;99.90
22925;DHT22;11628;51.072;3.712;2022-12-10T12:15:44;3.90;99.90
22925;DHT22;11628;51.072;3.712;2022-12-10T12:18:42;3.90;99.90
22925;DHT22;11628;51.072;3.712;2022-12-10T12:21:12;3.80;99.90
22925;DHT22;11628;51.072;3.712;2022-12-10T12:24:03;3.80;99.90
22925;DHT22;11628;51.072;3.712;2022-12-10T12:26:35;3.90;99.90
22925;DHT22;11628;51.072;3.712;2022-12-10T12:29:34;5.00;99.90
22925;DHT22;11628;51.072;3.712;2022-12-10T12:32:24;4.90;99.90
22925;DHT22;11628;51.072;3.712;2022-12-10T12:34:54;4.60;99.90
22925;DHT22;11628;51.072;3.712;2022-12-10T12:37:36;4.60;99.90
22925;DHT22;11628;51.072;3.712;2022-12-10T12:40:13;4.70;99.90
22925;DHT22;11628;51.072;3.712;2022-12-10T12:42:49;4.70;99.90
22925;DHT22;11628;51.072;3.712;2022-12-10T12:45:41;4.60;99.90
22925;DHT22;11628;51.072;3.712;2022-12-10T12:48:18;4.40;99.90
22925;DHT22;11628;51.072;3.712;2022-12-10T12:50:54;4.30;99.90
22925;DHT22;11628;51.072;3.712;2022-12-10T12:53:22;4.30;99.90
22925;DHT22;11628;51.072;3.712;2022-12-10T12:56:17;4.20;99.90
22925;DHT22;11628;51.072;3.712;2022-12-10T12:59:08;4.20;99.90
22925;DHT22;11628;51.072;3.712;2022-12-10T13:01:41;4.20;99.90
22925;DHT22;11628;51.072;3.712;2022-12-10T13:04:09;4.10;99.90
22925;DHT22;11628;51.072;3.712;2022-12-10T13:06:38;4.10;99.90
22925;DHT22;11628;51.072;3.712;2022-12-10T13:11:39;4.00;99.90
22925;DHT22;11628;51.072;3.712;2022-12-10T13:30:04;3.90;99.90
22925;DHT22;11628;51.072;3.712;2022-12-10T13:48:55;4.00;99.90
22925;DHT22;11628;51.072;3.712;2022-12-10T13:51:36;4.10;99.90
22925;DHT22;11628;51.072;3.712;2022-12-10T14:07:24;4.10;99.90
22925;DHT22;11628;51.072;3.712;2022-12-10T14:09:55;4.10;99.90
22925;DHT22;11628;51.072;3.712;2022-12-10T14:12:31;4.10;99.90
22925;DHT22;11628;51.072;3.712;2022-12-10T14:17:42;4.00;99.90
22925;DHT22;11628;51.072;3.712;2022-12-10T14:20:16;3.90;99.90
22925;DHT22;11628;51.072;3.712;2022-12-10T14:22:48;3.80;99.90
22925;DHT22;11628;51.072;3.712;2022-12-10T14:25:17;3.80;99.90
22925;DHT22;11628;51.072;3.712;2022-12-10T14:27:51;3.70;99.90
22925;DHT22;11628;51.072;3.712;2022-12-10T14:30:21;3.70;99.90
22925;DHT22;11628;51.072;3.712;2022-12-10T14:32:48;3.70;99.90
22925;DHT22;11628;51.072;3.712;2022-12-10T14:35:17;3.80;99.90
22925;DHT22;11628;51.072;3.712;2022-12-10T14:37:46;3.80;99.90
22925;DHT22;11628;51.072;3.712;2022-12-10T14:40:25;3.90;99.90
22925;DHT22;11628;51.072;3.712;2022-12-10T14:42:59;3.90;99.90
22925;DHT22;11628;51.072;3.712;2022-12-10T14:45:33;3.80;99.90
22925;DHT22;11628;51.072;3.712;2022-12-10T14:48:04;3.80;99.90
22925;DHT22;11628;51.072;3.712;2022-12-10T14:50:33;3.70;99.90
22925;DHT22;11628;51.072;3.712;2022-12-10T14:53:00;3.80;99.90
22925;DHT22;11628;51.072;3.712;2022-12-10T14:55:26;3.80;99.90
22925;DHT22;11628;51.072;3.712;2022-12-10T14:57:59;3.80;99.90
22925;DHT22;11628;51.072;3.712;2022-12-10T15:00:25;4.00;99.90
22925;DHT22;11628;51.072;3.712;2022-12-10T15:02:59;4.10;99.90
22925;DHT22;11628;51.072;3.712;2022-12-10T15:05:32;4.20;99.90
22925;DHT22;11628;51.072;3.712;2022-12-10T15:08:01;4.10;99.90
22925;DHT22;11628;51.072;3.712;2022-12-10T15:10:38;4.00;99.90
22925;DHT22;11628;51.072;3.712;2022-12-10T15:13:06;4.00;99.90
22925;DHT22;11628;51.072;3.712;2022-12-10T15:15:39;3.90;99.90
22925;DHT22;11628;51.072;3.712;2022-12-10T15:18:33;3.90;99.90
22925;DHT22;11628;51.072;3.712;2022-12-10T15:21:23;3.80;99.90
22925;DHT22;11628;51.072;3.712;2022-12-10T15:23:50;3.70;99.90
22925;DHT22;11628;51.072;3.712;2022-12-10T15:26:21;3.60;99.90
22925;DHT22;11628;51.072;3.712;2022-12-10T15:28:50;3.60;99.90
22925;DHT22;11628;51.072;3.712;2022-12-10T15:31:29;3.60;99.90
22925;DHT22;11628;51.072;3.712;2022-12-10T15:34:07;3.50;99.90
22925;DHT22;11628;51.072;3.712;2022-12-10T15:36:40;3.40;99.90
22925;DHT22;11628;51.072;3.712;2022-12-10T15:41:44;3.30;99.90
22925;DHT22;11628;51.072;3.712;2022-12-10T15:49:40;3.10;99.90
22925;DHT22;11628;51.072;3.712;2022-12-10T15:52:06;2.90;99.90
22925;DHT22;11628;51.072;3.712;2022-12-10T15:54:34;3.00;99.90
22925;DHT22;11628;51.072;3.712;2022-12-10T15:59:43;3.00;99.90
22925;DHT22;11628;51.072;3.712;2022-12-10T16:02:37;3.00;99.90
22925;DHT22;11628;51.072;3.712;2022-12-10T16:05:17;3.00;99.90
22925;DHT22;11628;51.072;3.712;2022-12-10T16:07:44;3.10;99.90
22925;DHT22;11628;51.072;3.712;2022-12-10T16:10:13;3.00;99.90
22925;DHT22;11628;51.072;3.712;2022-12-10T16:12:39;3.00;99.90
22925;DHT22;11628;51.072;3.712;2022-12-10T16:15:08;3.00;99.90
22925;DHT22;11628;51.072;3.712;2022-12-10T16:17:36;2.90;99.90
22925;DHT22;11628;51.072;3.712;2022-12-10T16:22:48;2.90;99.90
22925;DHT22;11628;51.072;3.712;2022-12-10T16:25:14;2.80;99.90
22925;DHT22;11628;51.072;3.712;2022-12-10T16:27:41;2.90;99.90
22925;DHT22;11628;51.072;3.712;2022-12-10T16:30:23;2.80;99.90
22925;DHT22;11628;51.072;3.712;2022-12-10T16:32:49;2.80;99.90
22925;DHT22;11628;51.072;3.712;2022-12-10T16:35:15;2.80;99.90
22925;DHT22;11628;51.072;3.712;2022-12-10T16:37:45;2.80;99.90
22925;DHT22;11628;51.072;3.712;2022-12-10T16:40:13;2.90;99.90
22925;DHT22;11628;51.072;3.712;2022-12-10T16:42:40;2.80;99.90
22925;DHT22;11628;51.072;3.712;2022-12-10T16:45:20;2.80;99.90
22925;DHT22;11628;51.072;3.712;2022-12-10T16:47:47;2.80;99.90
22925;DHT22;11628;51.072;3.712;2022-12-10T16:50:14;2.80;99.90
22925;DHT22;11628;51.072;3.712;2022-12-10T16:52:42;2.70;99.90
22925;DHT22;11628;51.072;3.712;2022-12-10T16:55:19;2.70;99.90
22925;DHT22;11628;51.072;3.712;2022-12-10T16:57:46;2.80;99.90
22925;DHT22;11628;51.072;3.712;2022-12-10T17:00:15;2.70;99.90
22925;DHT22;11628;51.072;3.712;2022-12-10T17:02:42;2.70;99.90
22925;DHT22;11628;51.072;3.712;2022-12-10T17:05:28;2.80;99.90
22925;DHT22;11628;51.072;3.712;2022-12-10T17:07:54;2.80;99.90
22925;DHT22;11628;51.072;3.712;2022-12-10T17:10:20;2.70;99.90
22925;DHT22;11628;51.072;3.712;2022-12-10T17:13:11;2.80;99.90
22925;DHT22;11628;51.072;3.712;2022-12-10T17:15:38;2.60;99.90
22925;DHT22;11628;51.072;3.712;2022-12-10T17:18:04;2.60;99.90
22925;DHT22;11628;51.072;3.712;2022-12-10T17:20:30;2.60;99.90
22925;DHT22;11628;51.072;3.712;2022-12-10T17:22:56;2.70;99.90
22925;DHT22;11628;51.072;3.712;2022-12-10T17:25:21;2.70;99.90
22925;DHT22;11628;51.072;3.712;2022-12-10T17:27:47;2.70;99.90
22925;DHT22;11628;51.072;3.712;2022-12-10T17:30:14;2.70;99.90
22925;DHT22;11628;51.072;3.712;2022-12-10T17:32:41;2.70;99.90
22925;DHT22;11628;51.072;3.712;2022-12-10T17:35:08;2.60;99.90
22925;DHT22;11628;51.072;3.712;2022-12-10T17:37:35;2.50;99.90
22925;DHT22;11628;51.072;3.712;2022-12-10T17:40:14;2.60;99.90
22925;DHT22;11628;51.072;3.712;2022-12-10T17:42:40;2.60;99.90
22925;DHT22;11628;51.072;3.712;2022-12-10T17:45:07;2.60;99.90
22925;DHT22;11628;51.072;3.712;2022-12-10T17:47:33;2.70;99.90
22925;DHT22;11628;51.072;3.712;2022-12-10T17:50:01;2.70;99.90
22925;DHT22;11628;51.072;3.712;2022-12-10T17:52:26;2.70;99.90
22925;DHT22;11628;51.072;3.712;2022-12-10T17:54:52;2.70;99.90
22925;DHT22;11628;51.072;3.712;2022-12-10T17:57:20;2.70;99.90
22925;DHT22;11628;51.072;3.712;2022-12-10T17:59:46;2.70;99.90
22925;DHT22;11628;51.072;3.712;2022-12-10T18:02:12;2.60;99.90
22925;DHT22;11628;51.072;3.712;2022-12-10T18:04:38;2.60;99.90
22925;DHT22;11628;51.072;3.712;2022-12-10T18:07:16;2.60;99.90
22925;DHT22;11628;51.072;3.712;2022-12-10T18:09:43;2.60;99.90